Time;durP1;ratioP1;P1;durP2;ratioP2;P2;SDS_P1;SDS_P2;PMS_P1;PMS_P2;Temp;Humidity;BMP_temperature;BMP_pressure;BME280_temperature;BME280_humidity;BME280_pressure;Samples;Min_cycle;Max_cycle;Signal;HPM_P1;HPM_P2
2023/09/05 00:00:26;;;;;;;2.83;1.80;;;20.60;99.90;;;;;;4133458;28;20185;-88
2023/09/05 00:02:26;;;;;;;3.40;1.63;;;20.50;99.90;;;;;;4133490;28;20331;-89
2023/09/05 00:04:29;;;;;;;2.40;1.40;;;20.50;99.90;;;;;;4133478;28;20691;-89
2023/09/05 00:06:29;;;;;;;3.78;1.40;;;20.40;99.90;;;;;;4149761;28;20184;-90
2023/09/05 00:08:31;;;;;;;3.05;1.35;;;20.30;99.90;;;;;;4133622;28;20182;-89
2023/09/05 00:10:32;;;;;;;2.80;1.95;;;20.00;99.90;;;;;;4149604;28;20223;-90
2023/09/05 00:12:33;;;;;;;4.47;1.83;;;20.10;99.90;;;;;;4133256;28;20201;-92
2023/09/05 00:14:35;;;;;;;3.10;1.35;;;20.10;99.90;;;;;;4133334;28;20276;-92
2023/09/05 00:16:37;;;;;;;3.55;1.60;;;19.70;99.90;;;;;;4133380;28;20182;-90
2023/09/05 00:18:37;;;;;;;3.00;1.65;;;19.60;99.90;;;;;;4133155;28;20555;-88
2023/09/05 00:20:38;;;;;;;2.55;1.77;;;19.70;99.90;;;;;;4133299;28;20218;-89
2023/09/05 00:22:39;;;;;;;1.80;1.30;;;19.80;99.90;;;;;;4133240;28;20233;-89
2023/09/05 00:24:40;;;;;;;4.05;1.63;;;19.60;99.90;;;;;;4133124;28;20178;-89
2023/09/05 00:26:45;;;;;;;3.28;1.40;;;19.70;99.90;;;;;;4133156;28;20185;-90
2023/09/05 00:28:50;;;;;;;3.38;1.83;;;20.00;99.90;;;;;;4133075;28;20189;-93
2023/09/05 00:30:50;;;;;;;4.90;2.13;;;20.20;99.90;;;;;;4132778;28;20217;-88
2023/09/05 00:32:51;;;;;;;2.97;1.70;;;20.30;99.90;;;;;;4132927;28;20206;-89
2023/09/05 00:34:52;;;;;;;2.40;1.38;;;20.30;99.90;;;;;;4132895;28;20250;-92
2023/09/05 00:36:53;;;;;;;2.25;1.48;;;20.10;99.90;;;;;;4132014;28;20679;-90
2023/09/05 00:38:54;;;;;;;3.33;1.88;;;20.00;99.90;;;;;;4132781;28;20185;-89
2023/09/05 00:40:55;;;;;;;3.20;1.67;;;20.20;99.90;;;;;;4149127;28;20579;-91
2023/09/05 00:42:56;;;;;;;4.63;1.88;;;20.10;99.90;;;;;;4132752;28;20301;-90
2023/09/05 00:44:58;;;;;;;2.50;1.45;;;19.40;99.90;;;;;;4149361;28;20699;-91
2023/09/05 00:47:00;;;;;;;2.90;1.73;;;18.80;99.90;;;;;;4132785;28;20561;-89
2023/09/05 00:49:04;;;;;;;1.90;1.40;;;18.70;99.90;;;;;;4148926;28;20173;-92
2023/09/05 00:51:05;;;;;;;2.78;1.90;;;18.70;99.90;;;;;;4149037;28;20270;-93
2023/09/05 00:53:06;;;;;;;2.22;1.77;;;19.00;99.90;;;;;;4148790;28;20275;-89
2023/09/05 00:55:08;;;;;;;2.80;1.90;;;19.50;99.90;;;;;;4132629;28;20177;-91
2023/09/05 00:57:15;;;;;;;6.60;1.60;;;19.70;99.90;;;;;;4148697;28;20689;-90
2023/09/05 00:59:18;;;;;;;1.67;1.30;;;19.80;99.90;;;;;;4132671;28;20182;-92
2023/09/05 01:01:18;;;;;;;3.15;1.77;;;20.00;99.90;;;;;;4148608;28;20193;-89
2023/09/05 01:03:19;;;;;;;4.43;1.58;;;20.20;99.90;;;;;;4148983;28;20197;-90
2023/09/05 01:05:24;;;;;;;2.35;1.70;;;20.20;99.90;;;;;;4132424;28;20308;-89
2023/09/05 01:07:45;;;;;;;4.25;1.33;;;20.30;99.90;;;;;;4132551;28;20200;-90
2023/09/05 01:09:51;;;;;;;2.88;1.60;;;20.20;99.90;;;;;;4132482;28;20194;-92
2023/09/05 01:11:53;;;;;;;3.80;1.70;;;19.90;99.90;;;;;;4132499;28;20220;-91
2023/09/05 01:13:53;;;;;;;2.63;1.63;;;19.50;99.90;;;;;;4148784;28;20175;-92
2023/09/05 01:15:54;;;;;;;4.25;2.03;;;19.20;99.90;;;;;;4132769;28;20662;-90
2023/09/05 01:17:57;;;;;;;4.65;1.50;;;19.10;99.90;;;;;;4148814;28;20181;-92
2023/09/05 01:20:00;;;;;;;4.03;1.77;;;19.20;99.90;;;;;;4132446;28;20185;-90
2023/09/05 01:22:18;;;;;;;2.35;1.40;;;18.90;99.90;;;;;;4132147;28;20213;-89
2023/09/05 01:24:23;;;;;;;3.40;1.80;;;19.00;99.90;;;;;;4132245;28;20240;-93
2023/09/05 01:26:24;;;;;;;2.08;1.33;;;19.30;99.90;;;;;;4132120;28;20197;-89
2023/09/05 01:28:26;;;;;;;3.33;1.80;;;19.50;99.90;;;;;;4131997;28;20231;-89
2023/09/05 01:30:28;;;;;;;1.98;1.33;;;19.70;99.90;;;;;;4132539;28;20245;-90
2023/09/05 01:32:29;;;;;;;3.63;2.00;;;19.40;99.90;;;;;;4131982;28;20214;-90
2023/09/05 01:34:30;;;;;;;4.18;1.48;;;19.40;99.90;;;;;;4165794;28;20279;-90
2023/09/05 01:36:31;;;;;;;4.05;1.90;;;19.50;99.90;;;;;;4148473;28;20268;-90
2023/09/05 01:38:33;;;;;;;5.20;1.60;;;19.80;99.90;;;;;;4148400;28;20187;-89
2023/09/05 01:40:33;;;;;;;2.35;1.35;;;19.70;99.90;;;;;;4148313;28;20259;-89
2023/09/05 01:42:34;;;;;;;2.13;1.67;;;19.80;99.90;;;;;;4148074;28;20669;-90
2023/09/05 01:44:36;;;;;;;2.60;1.73;;;19.60;99.90;;;;;;4148156;28;20188;-93
2023/09/05 01:46:38;;;;;;;5.80;1.90;;;19.50;99.90;;;;;;4148625;28;20590;-89
2023/09/05 01:48:39;;;;;;;4.07;1.75;;;19.40;99.90;;;;;;4165155;28;20188;-90
2023/09/05 01:50:39;;;;;;;3.33;1.90;;;19.10;99.90;;;;;;4165504;28;20239;-92
2023/09/05 01:52:40;;;;;;;4.88;1.98;;;18.80;99.90;;;;;;4131729;28;20268;-89
2023/09/05 01:54:41;;;;;;;2.45;1.63;;;19.00;99.90;;;;;;4131937;28;20215;-89
2023/09/05 01:56:42;;;;;;;2.88;1.65;;;19.20;99.90;;;;;;4131837;28;20663;-89
2023/09/05 01:58:43;;;;;;;2.60;1.40;;;19.30;99.90;;;;;;4131745;28;20188;-89
2023/09/05 02:00:43;;;;;;;2.75;1.70;;;19.30;99.90;;;;;;4131916;28;20215;-89
2023/09/05 02:02:44;;;;;;;4.40;1.70;;;19.20;99.90;;;;;;4131781;28;20691;-89
2023/09/05 02:04:45;;;;;;;4.70;1.90;;;19.20;99.90;;;;;;4131988;28;20181;-92
2023/09/05 02:06:47;;;;;;;2.35;1.40;;;19.20;99.90;;;;;;4132007;28;20177;-89
2023/09/05 02:08:48;;;;;;;3.40;1.70;;;19.20;99.90;;;;;;4147983;28;20181;-89
2023/09/05 02:10:48;;;;;;;2.88;1.58;;;19.10;99.90;;;;;;4148035;28;20303;-87
2023/09/05 02:12:50;;;;;;;5.05;2.00;;;19.10;99.90;;;;;;4131788;28;20213;-88
2023/09/05 02:14:50;;;;;;;2.72;1.55;;;19.10;99.90;;;;;;4131849;28;20185;-90
2023/09/05 02:16:51;;;;;;;7.43;2.28;;;19.00;99.90;;;;;;4148138;28;20563;-89
2023/09/05 02:18:52;;;;;;;2.83;1.83;;;18.90;99.90;;;;;;4131860;28;20244;-92
2023/09/05 02:21:01;;;;;;;2.83;1.67;;;18.90;99.90;;;;;;4148142;28;20540;-93
2023/09/05 02:23:01;;;;;;;5.03;2.08;;;18.80;99.90;;;;;;4131974;28;20243;-90
2023/09/05 02:25:02;;;;;;;4.45;2.22;;;18.90;99.90;;;;;;4131872;28;20552;-88
2023/09/05 02:27:03;;;;;;;2.75;1.52;;;18.80;99.90;;;;;;4148172;28;20189;-89
2023/09/05 02:29:04;;;;;;;2.97;1.50;;;18.90;99.90;;;;;;4147768;28;20647;-92
2023/09/05 02:31:06;;;;;;;2.85;1.77;;;18.90;99.90;;;;;;4131708;28;20256;-89
2023/09/05 02:33:08;;;;;;;2.83;1.70;;;19.00;99.90;;;;;;4131832;28;20348;-93
2023/09/05 02:35:09;;;;;;;4.00;1.52;;;19.10;99.90;;;;;;4131594;28;20193;-89
2023/09/05 02:37:10;;;;;;;2.45;1.60;;;19.10;99.90;;;;;;4131506;28;20269;-89
2023/09/05 02:39:11;;;;;;;2.17;1.30;;;19.20;99.90;;;;;;4131674;28;20274;-89
2023/09/05 02:41:16;;;;;;;3.05;1.95;;;19.10;99.90;;;;;;4131706;28;20281;-89
2023/09/05 02:43:16;;;;;;;3.70;1.75;;;19.00;99.90;;;;;;4147672;28;20230;-89
2023/09/05 02:45:17;;;;;;;2.08;1.70;;;18.90;99.90;;;;;;4131671;28;20189;-89
2023/09/05 02:47:18;;;;;;;2.95;1.85;;;18.80;99.90;;;;;;4131564;28;20220;-92
2023/09/05 02:49:19;;;;;;;3.63;2.15;;;18.60;99.90;;;;;;4131549;28;20192;-92
2023/09/05 02:51:19;;;;;;;5.43;2.30;;;18.50;99.90;;;;;;4147629;28;20216;-89
2023/09/05 02:53:20;;;;;;;4.05;2.08;;;18.40;99.90;;;;;;4147591;28;20189;-89
2023/09/05 02:55:21;;;;;;;2.55;1.65;;;18.30;99.90;;;;;;4147774;28;20667;-89
2023/09/05 02:57:22;;;;;;;2.80;1.70;;;18.30;99.90;;;;;;4131473;28;20185;-93
2023/09/05 02:59:23;;;;;;;11.63;2.33;;;18.30;99.90;;;;;;4131572;28;20610;-89
2023/09/05 03:01:23;;;;;;;2.75;1.35;;;18.30;99.90;;;;;;4133444;28;20189;-93
2023/09/05 03:03:26;;;;;;;2.58;1.70;;;18.20;99.90;;;;;;4134366;28;20741;-93
2023/09/05 03:05:26;;;;;;;3.47;1.98;;;18.10;99.90;;;;;;4134409;28;20213;-89
2023/09/05 03:07:27;;;;;;;4.22;1.92;;;18.00;99.90;;;;;;4150588;28;20715;-93
2023/09/05 03:09:29;;;;;;;2.10;1.55;;;17.80;99.90;;;;;;4150450;28;20181;-93
2023/09/05 03:11:30;;;;;;;2.45;1.38;;;17.70;99.90;;;;;;4134255;28;20225;-88
2023/09/05 03:13:31;;;;;;;2.17;1.50;;;17.60;99.90;;;;;;4150290;28;20208;-88
2023/09/05 03:15:32;;;;;;;2.28;1.52;;;17.60;99.90;;;;;;4134191;28;20229;-89
2023/09/05 03:17:32;;;;;;;3.22;2.10;;;17.60;99.90;;;;;;4134149;28;20254;-89
2023/09/05 03:19:33;;;;;;;3.55;1.90;;;17.50;99.90;;;;;;4134290;28;20595;-90
2023/09/05 03:21:34;;;;;;;2.83;1.58;;;17.50;99.90;;;;;;4134098;28;20759;-88
2023/09/05 03:23:36;;;;;;;2.05;1.52;;;17.50;99.90;;;;;;4150415;28;20271;-93
2023/09/05 03:25:37;;;;;;;2.40;1.48;;;17.50;99.90;;;;;;4133914;28;20236;-89
2023/09/05 03:27:39;;;;;;;4.05;1.83;;;17.60;99.90;;;;;;4133990;28;20686;-90
2023/09/05 03:29:42;;;;;;;3.63;1.70;;;17.60;99.90;;;;;;4134038;28;20196;-89
2023/09/05 03:31:43;;;;;;;1.98;1.42;;;17.70;99.90;;;;;;4134031;28;20365;-89
2023/09/05 03:33:45;;;;;;;6.45;1.70;;;17.80;99.90;;;;;;4150413;28;20271;-89
2023/09/05 03:35:46;;;;;;;2.95;1.55;;;17.80;99.90;;;;;;4134011;28;20698;-90
2023/09/05 03:37:47;;;;;;;3.35;1.83;;;17.90;99.90;;;;;;4134025;28;20591;-90
2023/09/05 03:39:48;;;;;;;1.92;1.33;;;17.90;99.90;;;;;;4150054;28;20197;-89
2023/09/05 03:41:50;;;;;;;3.42;1.30;;;18.00;99.90;;;;;;4134053;28;20184;-91
2023/09/05 03:43:50;;;;;;;5.25;1.25;;;18.00;99.90;;;;;;4150029;28;20685;-92
2023/09/05 03:45:51;;;;;;;3.67;1.58;;;18.00;99.90;;;;;;4133843;28;20181;-90
2023/09/05 03:47:52;;;;;;;2.88;1.63;;;18.20;99.90;;;;;;4133958;28;20272;-88
2023/09/05 03:49:53;;;;;;;2.90;1.25;;;18.20;99.90;;;;;;4149905;28;20275;-89
2023/09/05 03:51:57;;;;;;;2.90;1.50;;;18.30;99.90;;;;;;4133526;28;20213;-92
2023/09/05 03:53:59;;;;;;;2.90;1.58;;;18.40;99.90;;;;;;4149865;28;20538;-89
2023/09/05 03:56:00;;;;;;;2.58;1.77;;;18.30;99.90;;;;;;4149931;28;20256;-89
2023/09/05 03:58:02;;;;;;;2.42;1.40;;;18.20;99.90;;;;;;4133485;28;20186;-93
2023/09/05 04:00:07;;;;;;;2.90;1.45;;;18.00;99.90;;;;;;4149700;28;20207;-89
2023/09/05 04:02:14;;;;;;;3.63;1.92;;;17.90;99.90;;;;;;4150309;28;20638;-90
2023/09/05 04:04:15;;;;;;;2.53;1.52;;;17.80;99.90;;;;;;4133445;28;20185;-92
2023/09/05 04:06:15;;;;;;;4.75;1.30;;;17.80;99.90;;;;;;4133514;28;20239;-88
2023/09/05 04:08:16;;;;;;;2.38;1.30;;;17.70;99.90;;;;;;4133499;28;20249;-89
2023/09/05 04:10:17;;;;;;;1.58;1.10;;;17.60;99.90;;;;;;4149655;28;20181;-89
2023/09/05 04:12:18;;;;;;;2.13;1.40;;;17.50;99.90;;;;;;4133180;28;20221;-89
2023/09/05 04:14:18;;;;;;;3.28;1.42;;;17.60;99.90;;;;;;4149462;28;20173;-90
2023/09/05 04:16:19;;;;;;;2.40;1.42;;;17.60;99.90;;;;;;4132856;28;20197;-90
2023/09/05 04:18:20;;;;;;;3.95;1.55;;;17.50;99.90;;;;;;4132952;28;20185;-89
2023/09/05 04:20:21;;;;;;;1.65;0.88;;;17.50;99.90;;;;;;4165570;28;20176;-89
2023/09/05 04:22:24;;;;;;;3.88;1.58;;;17.40;99.90;;;;;;4132918;28;20215;-90
2023/09/05 04:24:25;;;;;;;4.28;1.50;;;17.50;99.90;;;;;;4149279;28;20216;-94
2023/09/05 04:26:28;;;;;;;1.67;1.30;;;17.50;99.90;;;;;;4148945;28;20194;-92
2023/09/05 04:28:30;;;;;;;3.78;1.58;;;17.50;99.90;;;;;;4149198;28;20260;-90
2023/09/05 04:30:32;;;;;;;2.00;1.20;;;17.60;99.90;;;;;;4144138;28;20208;-89
2023/09/05 04:32:34;;;;;;;3.75;1.20;;;17.60;99.90;;;;;;4165587;28;20674;-89
2023/09/05 04:34:35;;;;;;;18.42;2.40;;;17.60;99.90;;;;;;4149174;28;20181;-90
2023/09/05 04:36:36;;;;;;;1.80;1.02;;;17.70;99.90;;;;;;4132596;28;20272;-89
2023/09/05 04:38:38;;;;;;;1.70;1.23;;;17.60;99.90;;;;;;4132543;28;20173;-90
2023/09/05 04:40:39;;;;;;;1.45;1.20;;;17.60;99.90;;;;;;4132610;28;20180;-89
2023/09/05 04:42:40;;;;;;;2.50;1.35;;;17.60;99.90;;;;;;4132346;28;20217;-89
2023/09/05 04:44:41;;;;;;;3.13;1.48;;;17.50;99.90;;;;;;4132725;28;20244;-89
2023/09/05 04:46:45;;;;;;;3.33;1.45;;;17.40;99.90;;;;;;4132771;28;20192;-89
2023/09/05 04:48:46;;;;;;;5.13;1.30;;;17.40;99.90;;;;;;4132515;28;20272;-89
2023/09/05 04:50:46;;;;;;;3.72;1.30;;;17.50;99.90;;;;;;4148457;28;20574;-89
2023/09/05 04:52:47;;;;;;;7.15;1.25;;;17.60;99.90;;;;;;4132273;28;20664;-92
2023/09/05 04:54:48;;;;;;;2.90;1.10;;;17.60;99.90;;;;;;4132433;28;20178;-89
2023/09/05 04:56:51;;;;;;;2.20;1.45;;;17.60;99.90;;;;;;4132524;28;20189;-91
2023/09/05 04:58:52;;;;;;;4.07;1.67;;;17.60;99.90;;;;;;4132558;28;20216;-92
2023/09/05 05:00:56;;;;;;;6.75;1.35;;;17.60;99.90;;;;;;4148642;28;20632;-89
2023/09/05 05:02:58;;;;;;;1.90;1.13;;;17.60;99.90;;;;;;4132396;28;20251;-88
2023/09/05 05:04:58;;;;;;;2.75;1.40;;;17.70;99.90;;;;;;4132793;28;20194;-89
2023/09/05 05:06:59;;;;;;;2.00;1.30;;;17.70;99.90;;;;;;4132506;28;20205;-88
2023/09/05 05:09:00;;;;;;;4.38;1.38;;;17.90;99.90;;;;;;4132411;28;20188;-89
2023/09/05 05:11:05;;;;;;;2.42;1.30;;;17.90;99.90;;;;;;4148371;28;20228;-88
2023/09/05 05:13:05;;;;;;;2.15;1.33;;;17.90;99.90;;;;;;4132038;28;20230;-91
2023/09/05 05:15:07;;;;;;;2.53;1.42;;;17.90;99.90;;;;;;4132327;28;20641;-88
2023/09/05 05:17:08;;;;;;;2.33;1.13;;;17.90;99.90;;;;;;4132253;28;20193;-88
2023/09/05 05:19:09;;;;;;;4.10;1.75;;;17.80;99.90;;;;;;4148758;28;20598;-88
2023/09/05 05:21:10;;;;;;;2.58;1.13;;;17.80;99.90;;;;;;4132245;28;20241;-89
2023/09/05 05:23:11;;;;;;;3.10;1.67;;;17.70;99.90;;;;;;4131361;28;20205;-89
2023/09/05 05:25:11;;;;;;;3.67;1.38;;;17.80;99.90;;;;;;4131510;28;20207;-89
2023/09/05 05:27:12;;;;;;;3.28;1.45;;;17.80;99.90;;;;;;4131681;28;20208;-89
2023/09/05 05:29:13;;;;;;;1.45;1.02;;;17.80;99.90;;;;;;4131835;28;20189;-89
2023/09/05 05:31:14;;;;;;;3.67;1.40;;;17.90;99.90;;;;;;4131635;28;20221;-88
2023/09/05 05:33:15;;;;;;;10.07;2.05;;;17.90;99.90;;;;;;4131931;28;20189;-88
2023/09/05 05:35:16;;;;;;;1.52;0.93;;;17.90;99.90;;;;;;4131989;28;20189;-89
2023/09/05 05:37:16;;;;;;;2.70;1.48;;;17.90;99.90;;;;;;4131691;28;20174;-88
2023/09/05 05:39:21;;;;;;;2.65;1.35;;;17.90;99.90;;;;;;4131791;28;20189;-88
2023/09/05 05:41:22;;;;;;;4.60;1.65;;;17.90;99.90;;;;;;4131809;28;20185;-89
2023/09/05 05:43:24;;;;;;;2.15;1.08;;;18.00;99.90;;;;;;4147955;28;20566;-88
2023/09/05 05:45:24;;;;;;;2.17;1.40;;;18.10;99.90;;;;;;4131971;28;20202;-88
2023/09/05 05:47:25;;;;;;;2.40;1.42;;;18.20;99.90;;;;;;4148011;28;20248;-88
2023/09/05 05:49:29;;;;;;;2.20;0.93;;;18.40;99.90;;;;;;4131558;28;20224;-89
2023/09/05 05:51:30;;;;;;;2.00;1.38;;;18.50;99.90;;;;;;4131582;28;20723;-88
2023/09/05 05:53:32;;;;;;;1.50;1.05;;;18.50;99.90;;;;;;4147720;28;20204;-88
2023/09/05 05:55:33;;;;;;;2.40;1.20;;;18.60;99.90;;;;;;4131822;28;20184;-89
2023/09/05 05:57:34;;;;;;;2.88;1.30;;;18.60;99.90;;;;;;4131891;28;20209;-89
2023/09/05 05:59:35;;;;;;;1.48;1.00;;;18.70;99.90;;;;;;4131692;28;20189;-89
2023/09/05 06:01:36;;;;;;;1.73;1.05;;;18.80;99.90;;;;;;4131676;28;20279;-88
2023/09/05 06:03:37;;;;;;;1.42;0.70;;;19.00;99.90;;;;;;4131411;28;20535;-89
2023/09/05 06:05:38;;;;;;;2.08;1.00;;;19.20;99.90;;;;;;4147856;28;20193;-88
2023/09/05 06:07:39;;;;;;;1.88;0.80;;;19.40;99.90;;;;;;4147868;28;20223;-89
2023/09/05 06:09:40;;;;;;;2.47;1.38;;;19.60;99.90;;;;;;4147885;28;20185;-89
2023/09/05 06:11:41;;;;;;;2.10;1.10;;;19.70;99.90;;;;;;4147345;28;20243;-88
2023/09/05 06:13:41;;;;;;;1.48;0.82;;;19.80;99.90;;;;;;4131368;28;20184;-88
2023/09/05 06:15:42;;;;;;;1.10;0.90;;;19.90;99.90;;;;;;4131725;28;20221;-88
2023/09/05 06:17:43;;;;;;;2.20;1.13;;;20.10;99.90;;;;;;4131641;28;20173;-89
2023/09/05 06:19:44;;;;;;;2.80;0.98;;;20.20;99.90;;;;;;4148014;28;20868;-89
2023/09/05 06:21:46;;;;;;;1.67;0.80;;;20.20;99.90;;;;;;4131243;28;20181;-89
2023/09/05 06:23:47;;;;;;;2.15;1.02;;;20.30;99.90;;;;;;4131350;28;20190;-93
2023/09/05 06:25:47;;;;;;;2.08;1.00;;;20.30;99.90;;;;;;4147606;28;20638;-89
2023/09/05 06:27:48;;;;;;;2.83;1.00;;;20.40;99.90;;;;;;4131386;28;20583;-88
2023/09/05 06:29:49;;;;;;;2.88;1.10;;;20.00;99.90;;;;;;4131397;28;20268;-88
2023/09/05 06:31:49;;;;;;;3.92;1.00;;;20.00;99.90;;;;;;4131609;28;20225;-89
2023/09/05 06:33:50;;;;;;;1.70;0.93;;;20.00;99.90;;;;;;4131610;28;20247;-94
2023/09/05 06:35:51;;;;;;;2.67;1.25;;;20.00;99.90;;;;;;4132563;28;20186;-88
2023/09/05 06:37:55;;;;;;;3.10;0.95;;;20.30;99.90;;;;;;4150739;28;20195;-89
2023/09/05 06:39:56;;;;;;;2.08;0.90;;;20.30;99.90;;;;;;4150914;28;20187;-89
2023/09/05 06:41:58;;;;;;;1.63;1.00;;;20.60;99.90;;;;;;4134550;28;20197;-89
2023/09/05 06:44:06;;;;;;;1.63;1.05;;;20.40;99.90;;;;;;4135348;28;20180;-93
2023/09/05 06:46:08;;;;;;;1.38;0.93;;;20.20;99.90;;;;;;4150710;28;20683;-89
2023/09/05 06:48:08;;;;;;;2.58;1.17;;;19.90;99.90;;;;;;4134505;28;20180;-89
2023/09/05 06:50:10;;;;;;;2.03;1.50;;;19.70;99.90;;;;;;4150781;28;20227;-89
2023/09/05 06:52:11;;;;;;;2.25;1.05;;;20.10;99.90;;;;;;4134274;28;20213;-88
2023/09/05 06:54:12;;;;;;;10.65;1.70;;;20.50;99.90;;;;;;4134190;28;20192;-88
2023/09/05 06:56:12;;;;;;;3.35;1.50;;;21.00;99.90;;;;;;4134217;28;20260;-88
2023/09/05 06:58:13;;;;;;;2.55;1.30;;;21.10;99.90;;;;;;4134116;28;20209;-92
2023/09/05 07:00:14;;;;;;;5.22;1.65;;;21.00;99.90;;;;;;4134190;28;20276;-88
2023/09/05 07:02:15;;;;;;;2.70;1.25;;;21.00;99.90;;;;;;4133968;28;20248;-89
2023/09/05 07:04:15;;;;;;;2.03;1.15;;;21.00;99.90;;;;;;4133708;28;20289;-89
2023/09/05 07:06:18;;;;;;;3.47;1.58;;;21.10;99.90;;;;;;4134034;28;20182;-88
2023/09/05 07:08:19;;;;;;;4.53;1.10;;;21.20;99.90;;;;;;4150521;28;20181;-89
2023/09/05 07:10:20;;;;;;;2.58;1.13;;;21.40;99.90;;;;;;4134214;28;20249;-89
2023/09/05 07:12:21;;;;;;;1.40;1.13;;;22.10;99.90;;;;;;4149796;28;20259;-92
2023/09/05 07:14:22;;;;;;;3.15;1.23;;;23.40;99.90;;;;;;4150306;28;20204;-91
2023/09/05 07:16:22;;;;;;;1.95;1.10;;;24.70;99.90;;;;;;4134110;28;20268;-93
2023/09/05 07:18:24;;;;;;;2.08;1.20;;;25.70;99.90;;;;;;4134179;28;20201;-93
2023/09/05 07:20:24;;;;;;;3.55;1.50;;;26.70;99.90;;;;;;4133985;28;20193;-90
2023/09/05 07:22:25;;;;;;;2.20;1.10;;;27.80;99.90;;;;;;4150187;28;20228;-91
2023/09/05 07:24:26;;;;;;;2.15;1.15;;;28.50;99.90;;;;;;4133916;28;20268;-89
2023/09/05 07:26:27;;;;;;;2.15;1.27;;;29.00;99.90;;;;;;4134033;28;20185;-94
2023/09/05 07:28:28;;;;;;;2.05;1.10;;;29.20;99.90;;;;;;4133833;28;20182;-90
2023/09/05 07:30:32;;;;;;;2.72;1.13;;;29.90;99.90;;;;;;4163635;23;20268;-91
2023/09/05 07:32:33;;;;;;;2.28;1.13;;;30.00;99.90;;;;;;4142783;28;20210;-90
2023/09/05 07:34:35;;;;;;;2.15;0.95;;;30.30;99.90;;;;;;4143946;28;20190;-90
2023/09/05 07:36:37;;;;;;;3.08;1.38;;;30.60;99.90;;;;;;4141464;28;20176;-94
2023/09/05 07:38:38;;;;;;;1.33;1.00;;;30.90;99.90;;;;;;4130851;28;20254;-89
2023/09/05 07:40:39;;;;;;;2.80;1.50;;;30.60;99.90;;;;;;4145369;28;20257;-94
2023/09/05 07:42:42;;;;;;;3.30;0.98;;;30.80;99.90;;;;;;4143420;28;20204;-90
2023/09/05 07:44:42;;;;;;;1.40;1.05;;;31.10;99.90;;;;;;4144812;28;20182;-94
2023/09/05 07:46:43;;;;;;;2.17;1.10;;;29.90;99.90;;;;;;4129656;28;20202;-92
2023/09/05 07:48:46;;;;;;;3.03;1.40;;;30.50;99.90;;;;;;4142944;28;20217;-91
2023/09/05 07:51:05;;;;;;;4.88;1.10;;;31.30;99.90;;;;;;4144828;28;20243;-91
2023/09/05 07:53:06;;;;;;;3.42;0.85;;;32.00;99.90;;;;;;4145621;28;20295;-90
2023/09/05 07:55:07;;;;;;;2.28;1.23;;;32.90;99.90;;;;;;4131645;28;20178;-91
2023/09/05 07:57:08;;;;;;;1.92;1.00;;;32.90;99.90;;;;;;4128088;28;20281;-91
2023/09/05 07:59:08;;;;;;;1.63;1.00;;;33.00;99.90;;;;;;4128498;28;20185;-90
2023/09/05 08:01:09;;;;;;;2.28;1.30;;;33.20;99.90;;;;;;4129397;28;20182;-91
2023/09/05 08:03:10;;;;;;;1.38;0.95;;;33.60;99.90;;;;;;4146236;28;20298;-91
2023/09/05 08:05:17;;;;;;;2.33;1.20;;;33.40;99.90;;;;;;4146943;28;20171;-90
2023/09/05 08:07:18;;;;;;;2.33;0.90;;;33.70;99.90;;;;;;4129464;28;20166;-90
2023/09/05 08:09:22;;;;;;;1.60;0.93;;;34.50;99.90;;;;;;4132108;28;20604;-90
2023/09/05 08:11:23;;;;;;;1.83;1.10;;;35.00;99.90;;;;;;4130506;28;20229;-90
2023/09/05 08:13:34;;;;;;;1.58;0.90;;;35.00;99.90;;;;;;4144312;28;20224;-92
2023/09/05 08:15:36;;;;;;;1.55;0.85;;;35.10;99.90;;;;;;4142962;28;20264;-92
2023/09/05 08:17:37;;;;;;;1.92;1.10;;;35.20;99.90;;;;;;4126972;28;20177;-90
2023/09/05 08:19:38;;;;;;;1.02;0.80;;;34.20;99.90;;;;;;4146161;28;20193;-95
2023/09/05 08:21:39;;;;;;;0.80;0.73;;;34.70;99.90;;;;;;4127092;28;20174;-91
2023/09/05 08:23:39;;;;;;;5.07;1.40;;;35.00;99.90;;;;;;4141106;28;20212;-90
2023/09/05 08:25:57;;;;;;;1.10;0.90;;;35.50;99.90;;;;;;4128285;28;20197;-96
2023/09/05 08:27:58;;;;;;;0.98;0.80;;;35.30;99.90;;;;;;4144815;28;20188;-91
2023/09/05 08:29:59;;;;;;;1.20;0.85;;;35.10;99.90;;;;;;4133138;28;20249;-92
2023/09/05 08:32:00;;;;;;;1.75;0.57;;;35.70;99.90;;;;;;4130303;28;20201;-91
2023/09/05 08:34:01;;;;;;;1.98;0.70;;;34.90;99.90;;;;;;4144712;28;20185;-94
2023/09/05 08:36:05;;;;;;;1.63;1.00;;;35.00;99.90;;;;;;4130556;28;20180;-91
2023/09/05 08:38:06;;;;;;;1.30;1.02;;;33.50;99.90;;;;;;4128016;28;20181;-90
2023/09/05 08:40:08;;;;;;;1.10;0.80;;;32.90;99.90;;;;;;4120823;28;20664;-95
2023/09/05 08:42:09;;;;;;;0.90;0.80;;;33.10;99.90;;;;;;4121995;28;20202;-92
2023/09/05 08:44:10;;;;;;;1.02;0.90;;;32.50;99.90;;;;;;4127959;28;20206;-89
2023/09/05 08:46:14;;;;;;;0.98;0.65;;;31.80;99.90;;;;;;4143747;28;20223;-91
2023/09/05 08:48:15;;;;;;;0.93;0.75;;;32.00;99.90;;;;;;4126328;28;20202;-91
2023/09/05 08:50:18;;;;;;;3.83;0.98;;;33.00;99.90;;;;;;4142411;28;20181;-92
2023/09/05 08:52:19;;;;;;;1.45;1.02;;;33.00;99.90;;;;;;4144487;28;20232;-90
2023/09/05 08:54:25;;;;;;;0.90;0.70;;;33.20;99.90;;;;;;4129606;28;20189;-90
2023/09/05 08:56:26;;;;;;;0.85;0.75;;;32.90;99.90;;;;;;4128633;28;20162;-91
2023/09/05 08:58:29;;;;;;;1.10;0.75;;;33.20;99.90;;;;;;4128192;28;20186;-90
2023/09/05 09:00:31;;;;;;;1.00;0.90;;;33.10;99.90;;;;;;4127852;28;20200;-95
2023/09/05 09:02:35;;;;;;;1.00;0.75;;;32.20;99.90;;;;;;4142793;28;20197;-92
2023/09/05 09:04:52;;;;;;;1.10;0.80;;;31.80;99.90;;;;;;4141660;28;20188;-90
2023/09/05 09:06:55;;;;;;;0.80;0.80;;;32.20;99.90;;;;;;4126445;28;20284;-89
2023/09/05 09:08:58;;;;;;;1.08;0.77;;;31.50;99.90;;;;;;4143726;28;20188;-91
2023/09/05 09:11:07;;;;;;;1.73;0.80;;;31.80;99.90;;;;;;4130745;28;20288;-90
2023/09/05 09:13:18;;;;;;;1.58;0.95;;;32.30;99.90;;;;;;4126007;28;20671;-96
2023/09/05 09:15:55;;;;;;;1.13;0.60;;;32.30;99.90;;;;;;4146162;28;20211;-89
2023/09/05 09:17:57;;;;;;;1.17;0.80;;;33.00;99.90;;;;;;4131154;28;20189;-89
2023/09/05 09:19:58;;;;;;;1.15;0.65;;;33.40;99.90;;;;;;4146227;28;20197;-90
2023/09/05 09:22:01;;;;;;;1.40;0.73;;;33.40;99.90;;;;;;4130500;28;20201;-94
2023/09/05 09:24:18;;;;;;;0.68;0.60;;;33.40;99.90;;;;;;4146301;28;20208;-92
2023/09/05 09:26:20;;;;;;;1.08;0.90;;;34.00;99.90;;;;;;4147745;28;20165;-90
2023/09/05 09:28:40;;;;;;;3.42;0.93;;;33.50;99.90;;;;;;4129992;28;20193;-91
2023/09/05 09:30:42;;;;;;;1.08;0.60;;;33.50;99.90;;;;;;4130871;28;20237;-90
2023/09/05 09:32:52;;;;;;;1.45;0.90;;;34.00;99.90;;;;;;4148073;28;20213;-93
2023/09/05 09:34:55;;;;;;;0.85;0.70;;;34.20;99.90;;;;;;4114510;28;20169;-91
2023/09/05 09:36:58;;;;;;;0.82;0.73;;;34.50;99.90;;;;;;4130919;28;20162;-89
2023/09/05 09:39:20;;;;;;;2.03;1.00;;;34.80;99.90;;;;;;4149082;28;20298;-90
2023/09/05 09:41:21;;;;;;;1.30;0.70;;;34.90;99.90;;;;;;4131292;28;20253;-91
2023/09/05 09:43:30;;;;;;;1.63;0.90;;;34.20;99.90;;;;;;4132733;28;20201;-91
2023/09/05 09:45:37;;;;;;;1.92;1.15;;;33.60;99.90;;;;;;4133518;28;20616;-93
2023/09/05 09:48:02;;;;;;;2.95;1.10;;;33.90;99.90;;;;;;4117691;28;20174;-90
2023/09/05 09:50:11;;;;;;;1.25;0.90;;;33.50;99.90;;;;;;4161157;28;20212;-91
2023/09/05 09:52:16;;;;;;;1.00;0.70;;;33.00;99.90;;;;;;4146789;28;20228;-90
2023/09/05 09:54:31;;;;;;;1.10;0.80;;;32.90;99.90;;;;;;4116605;28;20194;-94
2023/09/05 09:56:34;;;;;;;1.70;0.80;;;32.50;99.90;;;;;;4147618;28;20200;-88
2023/09/05 09:58:36;;;;;;;1.15;0.80;;;32.40;99.90;;;;;;4131919;28;20281;-90
2023/09/05 10:00:46;;;;;;;1.10;0.82;;;32.20;99.90;;;;;;4146332;28;20180;-90
2023/09/05 10:03:04;;;;;;;1.27;0.80;;;32.40;99.90;;;;;;4130849;28;20189;-90
2023/09/05 10:05:24;;;;;;;1.08;0.70;;;32.50;99.90;;;;;;4146200;28;20173;-90
2023/09/05 10:07:26;;;;;;;1.30;1.00;;;32.10;99.90;;;;;;4148604;28;20173;-90
2023/09/05 10:09:29;;;;;;;1.20;0.82;;;32.00;99.90;;;;;;4120870;28;20241;-89
2023/09/05 10:11:32;;;;;;;3.35;0.90;;;32.10;99.90;;;;;;4119984;28;20225;-89
2023/09/05 10:13:35;;;;;;;1.30;0.88;;;31.30;99.90;;;;;;4119563;28;20197;-91
2023/09/05 10:15:38;;;;;;;2.65;1.23;;;30.80;99.90;;;;;;4135891;28;20188;-90
2023/09/05 10:17:44;;;;;;;1.83;1.00;;;30.50;99.90;;;;;;4119449;28;20653;-91
2023/09/05 10:19:46;;;;;;;1.30;0.85;;;29.90;99.90;;;;;;4119466;28;20182;-89
2023/09/05 10:21:49;;;;;;;4.70;1.00;;;29.80;99.90;;;;;;4119389;28;20205;-93
2023/09/05 10:23:52;;;;;;;0.98;0.82;;;29.50;99.90;;;;;;4135223;28;20177;-91
2023/09/05 10:25:54;;;;;;;1.10;0.82;;;29.40;99.90;;;;;;4122724;28;20180;-90
2023/09/05 10:27:57;;;;;;;1.73;1.10;;;29.20;99.90;;;;;;4131259;28;20252;-90
2023/09/05 10:29:59;;;;;;;2.15;0.55;;;28.80;99.90;;;;;;4149204;28;20217;-89
2023/09/05 10:32:05;;;;;;;1.38;1.08;;;28.80;99.90;;;;;;4165167;28;20220;-89
2023/09/05 10:34:05;;;;;;;2.10;1.05;;;28.60;99.90;;;;;;4132222;28;20285;-89
2023/09/05 10:36:42;;;;;;;1.33;0.90;;;28.60;99.90;;;;;;4131694;28;20186;-93